メインページ
METAR-TAF:

METAR-TAF

空港 :

Sanandaj, イラン

緯度: 35-20N, 経度: 047-00E, 海抜: 1373m

現時点の気象観測

当レポートは22分前の06:00(UTC)に作成
の風 2kt
気温 4°C
湿度 65%
気圧 1021 hPa
視程10km以上
高度3500ftの雲はほとんどない

METAR: OICS 130600Z 35002KT 9999 FEW035 04/M02 Q1021

時間: 09:52 (06:22 UTC)


TAF: 見つかりません

4,000以上の空港の気象観測と天気予報(METAR報とTAF報)

利用可能な観測所は地図上に黄色い丸と赤い丸で示す。

丸の上にカーソルを重ねると観測所名を参照できる。

次にクリックすると気象観測と天気予報を参照できる。

マップの切り替え:黒色「×」印の緑ボタンをクリックして拡大、「-」印の緑ボタンをクリックして縮小、緑色の三角印をクリックして隣りの地図に切り替え


METAR-TAF: